Latest Coastal Weather Observations for Swanbourne

IDW60701

Issued at 9:53 pm WST Monday 4 May 2026 (issued every 10 minutes, with the page automatically refreshed every 10 minutes)

About coastal observations | Map of coastal stations | Coastal observations for WA | Marine services | Other Formats
Station Details ID: 009215 Name: SWANBOURNE Lat: -31.96 Lon: 115.76 Height: 40.96 m
Data from the previous 72 hours. | See also: Recent months at Swanbourne
Date/Time
WST
Wind Sea
Height
m
Swell Vis
km
Cloud Weather Temp
°C
Press
MSL
hPa
Rain since
9am
mm
Dir  Spd
kts
Gust
kts
Height
m
Period
s
Dir
04/09:30pm ESE 5 6 - - - - - - - 13.8 - 0.0
04/09:00pm SE 4 5 - - - - - - - 14.3 - 0.0
04/08:30pm ESE 5 6 - - - - - - - 14.9 - 0.0
04/08:00pm SE 4 7 - - - - - - - 15.6 - 0.0
04/07:30pm SE 5 9 - - - - - - - 16.1 - 0.0
04/07:00pm SSE 5 9 - - - - - - - 16.6 - 0.0
04/06:30pm SSE 6 11 - - - - - - - 16.9 - 0.0
04/06:00pm S 7 11 - - - - - - - 17.2 - 0.0
04/05:30pm SSW 8 14 - - - - - - - 17.6 - 0.0
04/05:00pm SSW 9 13 - - - - - - - 18.3 - 0.0
04/04:30pm SSW 9 13 - - - - - - - 18.7 - 0.0
04/04:00pm SSW 9 13 - - - - - - - 19.0 - 0.0
04/03:30pm SSW 9 14 - - - - - - - 19.4 - 0.0
04/03:00pm SSW 9 13 - - - - - - - 19.8 - 0.0
04/02:30pm SSW 9 14 - - - - - - - 20.0 - 0.0
04/02:00pm SE 5 9 - - - - - - - 20.8 - 0.0
04/01:30pm WNW 3 7 - - - - - - - 21.2 - 0.0
04/01:00pm NNE 3 7 - - - - - - - 20.8 - 0.0
04/12:30pm ENE 5 9 - - - - - - - 20.8 - 0.0
04/12:00pm E 5 9 - - - - - - - 20.3 - 0.0
04/11:30am E 6 10 - - - - - - - 19.7 - 0.0
04/11:00am ENE 7 11 - - - - - - - 18.9 - 0.0
04/10:30am ENE 8 13 - - - - - - - 18.4 - 0.0
04/10:00am ENE 7 11 - - - - - - - 17.6 - 0.0
04/09:30am E 9 14 - - - - - - - 16.4 - 0.0
04/09:00am ENE 10 14 - - - - - - - 15.2 - 0.0
04/08:30am E 9 13 - - - - - - - 14.1 - 0.0
04/08:00am E 7 10 - - - - - - - 12.7 - 0.0
04/07:30am E 7 9 - - - - - - - 11.4 - 0.0
04/07:00am E 7 11 - - - - - - - 11.0 - 0.0
04/06:30am ENE 7 10 - - - - - - - 10.5 - 0.0
04/06:00am ENE 8 11 - - - - - - - 10.4 - 0.0
04/05:30am ENE 7 9 - - - - - - - 9.7 - 0.0
04/05:00am E 7 8 - - - - - - - 10.0 - 0.0
04/04:30am ESE 6 8 - - - - - - - 10.5 - 0.0
04/04:00am ESE 7 8 - - - - - - - 10.7 - 0.0
04/03:30am E 5 7 - - - - - - - 11.3 - 0.0
04/03:00am ESE 5 7 - - - - - - - 11.8 - 0.0
04/02:30am E 4 5 - - - - - - - 11.4 - 0.0
04/02:00am E 5 6 - - - - - - - 11.9 - 0.0
04/01:30am E 5 6 - - - - - - - 11.9 - 0.0
04/01:00am ESE 5 6 - - - - - - - 11.7 - 0.0
04/12:30am ESE 5 6 - - - - - - - 12.2 - 0.0
04/12:00am ESE 4 6 - - - - - - - 12.6 - 0.0
 
Date/Time
WST
Wind Sea
Height
m
Swell Vis
km
Cloud Weather Temp
°C
Press
MSL
hPa
Rain since
9am
mm
Dir  Spd
kts
Gust
kts
Height
m
Period
s
Dir
03/11:30pm ESE 6 7 - - - - - - - 13.3 - 0.0
03/11:00pm ESE 5 7 - - - - - - - 13.1 - 0.0
03/10:30pm ESE 5 7 - - - - - - - 13.4 - 0.0
03/10:00pm SE 4 5 - - - - - - - 13.4 - 0.0
03/09:30pm SE 5 6 - - - - - - - 13.8 - 0.0
03/09:00pm ESE 4 5 - - - - - - - 14.2 - 0.0
03/08:30pm SE 5 8 - - - - - - - 15.5 - 0.0
03/08:00pm SSE 4 5 - - - - - - - 16.1 - 0.0
03/07:30pm S 4 5 - - - - - - - 16.0 - 0.0
03/07:00pm S 4 6 - - - - - - - 16.1 - 0.0
03/06:30pm S 4 6 - - - - - - - 16.0 - 0.0
03/06:00pm SSW 4 7 - - - - - - - 15.9 - 0.0
03/05:30pm SSW 6 9 - - - - - - - 16.9 - 0.0
03/05:00pm SW 6 11 - - - - - - - 17.5 - 0.0
03/04:30pm SSW 8 12 - - - - - - - 18.1 - 0.0
03/04:00pm ESE 6 8 - - - - - - - 19.6 - 0.0
03/03:30pm ESE 6 11 - - - - - - - 19.6 - 0.0
03/03:00pm ESE 6 9 - - - - - - - 19.5 - 0.0
03/02:30pm ESE 5 8 - - - - - - - 19.3 - 0.0
03/02:00pm ESE 5 11 - - - - - - - 18.2 - 0.0
03/01:30pm ESE 6 12 - - - - - - - 18.4 - 0.0
03/01:00pm E 5 8 - - - - - - - 18.0 - 0.0
03/12:30pm E 7 12 - - - - - - - 18.1 - 0.0
03/12:00pm ENE 6 10 - - - - - - - 17.8 - 0.0
03/11:30am E 6 9 - - - - - - - 18.0 - 0.0
03/11:00am ESE 4 7 - - - - - - - 16.9 - 0.0
03/10:30am ESE 6 10 - - - - - - - 15.8 - 0.0
03/10:00am ESE 6 9 - - - - - - - 15.5 - 0.0
03/09:30am SE 6 9 - - - - - - - 14.6 - 0.0
03/09:00am ESE 5 8 - - - - - - - 14.1 - 0.0
03/08:30am ESE 5 8 - - - - - - - 12.4 - 0.0
03/08:00am ESE 6 7 - - - - - - - 10.9 - 0.0
03/07:30am E 6 7 - - - - - - - 9.6 - 0.0
03/07:00am ESE 6 7 - - - - - - - 9.3 - 0.0
03/06:30am ESE 7 8 - - - - - - - 9.8 - 0.0
03/06:00am ESE 6 7 - - - - - - - 10.0 - 0.0
03/05:30am ESE 6 8 - - - - - - - 10.1 - 0.0
03/05:00am E 6 7 - - - - - - - 10.3 - 0.0
03/04:30am E 6 8 - - - - - - - 10.4 - 0.0
03/04:00am ESE 6 7 - - - - - - - 10.1 - 0.0
03/03:30am ESE 5 7 - - - - - - - 10.2 - 0.0
03/03:00am ESE 4 5 - - - - - - - 10.1 - 0.0
03/02:30am E 5 6 - - - - - - - 10.5 - 0.0
03/02:00am E 5 5 - - - - - - - 10.4 - 0.0
03/01:30am ESE 4 5 - - - - - - - 11.1 - 0.0
03/01:00am ESE 5 5 - - - - - - - 11.0 - 0.0
03/12:30am SE 5 6 - - - - - - - 11.9 - 0.0
03/12:00am SE 4 6 - - - - - - - 12.0 - 0.0
 
Date/Time
WST
Wind Sea
Height
m
Swell Vis
km
Cloud Weather Temp
°C
Press
MSL
hPa
Rain since
9am
mm
Dir  Spd
kts
Gust
kts
Height
m
Period
s
Dir
02/11:30pm SE 5 6 - - - - - - - 12.0 - 0.0
02/11:00pm SE 4 5 - - - - - - - 12.2 - 0.0
02/10:30pm ESE 5 7 - - - - - - - 12.6 - 0.0
02/10:00pm ESE 4 5 - - - - - - - 12.8 - 0.0
02/09:30pm SE 4 7 - - - - - - - 13.3 - 0.0
02/09:00pm SSE 4 6 - - - - - - - 13.4 - 0.0
02/08:30pm SSE 5 6 - - - - - - - 13.6 - 0.0
02/08:00pm SSE 5 6 - - - - - - - 13.6 - 0.0
02/07:30pm SSE 4 5 - - - - - - - 13.8 - 0.0
02/07:00pm SSE 4 4 - - - - - - - 13.9 - 0.0
02/06:30pm SSE 4 5 - - - - - - - 14.5 - 0.0
02/06:00pm SSE 5 8 - - - - - - - 15.2 - 0.0
02/05:30pm S 5 7 - - - - - - - 15.8 - 0.0
02/05:00pm S 6 12 - - - - - - - 16.2 - 0.0
02/04:30pm SSW 9 14 - - - - - - - 16.7 - 0.0
02/04:00pm S 8 13 - - - - - - - 16.8 - 0.0
02/03:30pm SSE 6 11 - - - - - - - 17.3 - 0.0
02/03:00pm SSE 6 12 - - - - - - - 16.9 - 0.0
02/02:30pm SSE 7 11 - - - - - - - 17.5 - 0.0
02/02:00pm SE 8 13 - - - - - - - 17.3 - 0.0
02/01:30pm SSE 9 13 - - - - - - - 16.9 - 0.0
02/01:00pm SSE 9 14 - - - - - - - 16.3 - 0.0
02/12:30pm SSE 11 16 - - - - - - - 16.4 - 0.0
02/12:00pm S 9 16 - - - - - - - 16.6 - 0.0
02/11:30am SSE 10 16 - - - - - - - 16.4 - 0.0
02/11:00am SSE 10 17 - - - - - - - 15.5 - 0.0
02/10:30am SSE 7 14 - - - - - - - 14.9 - 0.0
02/10:00am SE 6 9 - - - - - - - 14.2 - 0.0
02/09:30am SE 6 9 - - - - - - - 13.1 - 0.0
02/09:00am ESE 5 8 - - - - - - - 12.7 - 0.0
02/08:30am ESE 6 8 - - - - - - - 11.2 - 0.0
02/08:00am ESE 4 6 - - - - - - - 9.7 - 0.0
02/07:30am E 5 6 - - - - - - - 8.1 - 0.0
02/07:00am E 6 7 - - - - - - - 7.9 - 0.0
02/06:30am ESE 6 7 - - - - - - - 8.1 - 0.0
02/06:00am ESE 5 7 - - - - - - - 7.8 - 0.0
02/05:30am ESE 6 7 - - - - - - - 8.0 - 0.0
02/05:00am ESE 5 8 - - - - - - - 8.5 - 0.0
02/04:30am ESE 6 8 - - - - - - - 8.7 - 0.0
02/04:00am SE 5 7 - - - - - - - 8.5 - 0.0
02/03:30am ESE 5 7 - - - - - - - 8.6 - 0.0
02/03:00am SE 5 6 - - - - - - - 8.6 - 0.0
02/02:30am ESE 5 6 - - - - - - - 8.6 - 0.0
02/02:00am ESE 5 7 - - - - - - - 9.2 - 0.0
02/01:30am SE 5 8 - - - - - - - 9.4 - 0.0
02/01:00am SE 6 8 - - - - - - - 9.6 - 0.0
02/12:30am SE 6 9 - - - - - - - 9.8 - 0.0
02/12:00am SE 6 9 - - - - - - - 10.1 - 0.0
 
Date/Time
WST
Wind Sea
Height
m
Swell Vis
km
Cloud Weather Temp
°C
Press
MSL
hPa
Rain since
9am
mm
Dir  Spd
kts
Gust
kts
Height
m
Period
s
Dir
01/11:30pm SE 5 7 - - - - - - - 10.1 - 0.0
01/11:00pm SE 6 9 - - - - - - - 10.5 - 0.0
01/10:30pm SE 6 9 - - - - - - - 10.7 - 0.0
01/10:00pm SE 6 8 - - - - - - - 10.8 - 0.0

Other formats

Comma delimited format used in spreadsheet applications
http://www.bom.gov.au/fwo/IDW60701/IDW60701.94614.axf

JavaScript Object Notation format (JSON) in row-major order
http://www.bom.gov.au/fwo/IDW60701/IDW60701.94614.json

Data quality

Most of these data are generated automatically and are frequently updated. Quality checks on data are not normally performed. It is possible for incorrect values to appear. Refer to information at About Latest Weather Observations and please check the disclaimer before using these data.